Time;durP1;ratioP1;P1;durP2;ratioP2;P2;SDS_P1;SDS_P2;PMS_P1;PMS_P2;Temp;Humidity;BMP_temperature;BMP_pressure;BME280_temperature;BME280_humidity;BME280_pressure;Samples;Min_cycle;Max_cycle;Signal;HPM_P1;HPM_P2
2022/11/22 00:02:25;;;;;;;27.58;20.08;;;1.80;99.90;;;;;;5004583;28;20049;-59
2022/11/22 00:04:50;;;;;;;27.95;19.67;;;1.90;99.90;;;;;;5021850;28;20038;-59
2022/11/22 00:07:16;;;;;;;31.13;20.90;;;1.80;99.90;;;;;;5021790;28;20117;-59
2022/11/22 00:09:41;;;;;;;32.95;21.50;;;2.00;99.90;;;;;;5022927;28;20034;-58
2022/11/22 00:12:07;;;;;;;29.13;19.98;;;1.90;99.90;;;;;;5022743;28;20056;-59
2022/11/22 00:14:33;;;;;;;29.77;20.33;;;2.00;99.90;;;;;;5022918;28;20056;-58
2022/11/22 00:16:58;;;;;;;34.75;22.33;;;1.90;99.90;;;;;;5021240;28;20049;-57
2022/11/22 00:19:24;;;;;;;32.05;20.70;;;2.70;99.90;;;;;;5005249;28;20053;-59
2022/11/22 00:21:49;;;;;;;32.42;20.77;;;2.00;99.90;;;;;;5021154;28;20045;-58
2022/11/22 00:24:15;;;;;;;38.13;22.85;;;2.00;99.90;;;;;;5022788;28;20096;-60
2022/11/22 00:26:41;;;;;;;35.42;23.60;;;3.30;99.90;;;;;;5021872;28;20041;-59
2022/11/22 00:29:06;;;;;;;34.83;21.98;;;2.20;99.90;;;;;;5022825;28;20049;-59
2022/11/22 00:31:32;;;;;;;38.35;23.13;;;2.00;99.90;;;;;;5021702;28;20046;-59
2022/11/22 00:33:58;;;;;;;37.92;23.33;;;2.10;99.90;;;;;;5024316;28;20053;-59
2022/11/22 00:36:24;;;;;;;36.97;22.88;;;2.10;99.90;;;;;;5026243;28;20396;-59
2022/11/22 00:38:49;;;;;;;39.47;24.50;;;2.10;99.90;;;;;;5007958;28;20491;-59
2022/11/22 00:41:15;;;;;;;38.85;24.65;;;2.10;99.90;;;;;;5025764;28;20209;-59
2022/11/22 00:43:40;;;;;;;39.08;24.20;;;2.20;99.90;;;;;;5025301;28;20042;-59
2022/11/22 00:46:06;;;;;;;38.80;24.20;;;2.00;99.90;;;;;;5025204;28;20053;-56
2022/11/22 00:48:32;;;;;;;41.28;25.00;;;2.10;99.90;;;;;;5026838;28;20037;-56
2022/11/22 00:50:58;;;;;;;41.65;25.33;;;2.50;99.90;;;;;;5026046;28;20077;-60
2022/11/22 00:53:24;;;;;;;39.85;24.67;;;2.10;99.90;;;;;;5025193;28;20042;-58
2022/11/22 00:55:49;;;;;;;40.47;25.70;;;2.30;99.90;;;;;;5025817;28;20507;-60
2022/11/22 00:58:15;;;;;;;43.88;25.42;;;2.90;99.90;;;;;;5025574;28;20484;-59
2022/11/22 01:00:40;;;;;;;41.40;25.70;;;2.10;99.90;;;;;;5006647;28;20045;-56
2022/11/22 01:03:10;;;;;;;41.28;25.92;;;2.10;99.90;;;;;;5026020;28;20081;-59
2022/11/22 01:05:36;;;;;;;42.42;24.98;;;2.10;99.90;;;;;;5025224;28;20060;-57
2022/11/22 01:08:02;;;;;;;41.40;26.25;;;2.10;99.90;;;;;;5025951;28;20625;-59
2022/11/22 01:10:27;;;;;;;38.63;25.48;;;2.20;99.90;;;;;;5024933;28;20165;-58
2022/11/22 01:12:53;;;;;;;42.00;25.60;;;2.70;99.90;;;;;;5024869;28;20076;-59
2022/11/22 01:15:19;;;;;;;43.30;25.67;;;2.20;99.90;;;;;;5007561;28;20572;-59
2022/11/22 01:17:44;;;;;;;40.63;26.25;;;2.30;99.90;;;;;;5024551;28;20045;-60
2022/11/22 01:20:10;;;;;;;43.35;27.08;;;2.90;99.90;;;;;;5024361;28;20136;-58
2022/11/22 01:22:36;;;;;;;40.88;26.20;;;2.20;99.90;;;;;;5025449;28;20049;-60
2022/11/22 01:25:02;;;;;;;41.20;26.17;;;2.20;99.90;;;;;;5025456;28;20603;-56
2022/11/22 01:27:27;;;;;;;36.75;24.58;;;2.10;99.90;;;;;;5007070;28;20041;-59
2022/11/22 01:29:53;;;;;;;38.60;25.35;;;2.40;99.90;;;;;;5025264;28;20140;-57
2022/11/22 01:32:18;;;;;;;39.20;25.60;;;2.30;99.90;;;;;;5006456;28;20037;-57
2022/11/22 01:34:44;;;;;;;38.22;26.48;;;2.30;99.90;;;;;;5025053;28;20302;-58
2022/11/22 01:37:10;;;;;;;36.05;24.38;;;2.70;99.90;;;;;;5024109;28;20128;-60
2022/11/22 01:39:35;;;;;;;36.75;24.85;;;2.20;99.90;;;;;;5007170;28;20186;-59
2022/11/22 01:42:01;;;;;;;37.50;24.55;;;2.40;99.90;;;;;;5025247;28;20069;-59
2022/11/22 01:44:30;;;;;;;34.03;21.83;;;2.20;99.90;;;;;;5024222;28;20049;-59
2022/11/22 01:47:10;;;;;;;36.15;25.17;;;2.40;99.90;;;;;;5023495;28;20493;-58
2022/11/22 01:50:00;;;;;;;35.17;23.90;;;2.20;99.90;;;;;;5024969;28;20045;-59
2022/11/22 01:52:31;;;;;;;33.63;22.48;;;2.30;99.90;;;;;;5014976;28;20049;-58
2022/11/22 01:55:05;;;;;;;37.65;24.95;;;2.40;99.90;;;;;;5006636;28;20050;-58
2022/11/22 01:57:35;;;;;;;32.70;23.73;;;2.20;99.90;;;;;;5023517;28;20180;-59
2022/11/22 02:00:05;;;;;;;33.15;23.83;;;2.20;99.90;;;;;;5024381;28;20045;-59
2022/11/22 02:02:32;;;;;;;34.17;24.92;;;2.40;99.90;;;;;;5024288;28;20047;-58
2022/11/22 02:05:02;;;;;;;32.67;23.00;;;2.40;99.90;;;;;;5009286;28;20048;-58
2022/11/22 02:07:59;;;;;;;32.90;22.02;;;2.30;99.90;;;;;;5006302;28;20056;-57
2022/11/22 02:10:27;;;;;;;34.05;23.20;;;2.50;99.90;;;;;;5023573;28;20051;-59
2022/11/22 02:12:55;;;;;;;32.90;22.55;;;2.40;99.90;;;;;;5024539;28;20033;-58
2022/11/22 02:15:20;;;;;;;27.70;18.65;;;2.30;99.90;;;;;;5024428;28;20058;-57
2022/11/22 02:17:46;;;;;;;34.80;24.13;;;2.40;99.90;;;;;;5022786;28;20057;-59
2022/11/22 02:20:12;;;;;;;34.55;23.10;;;2.80;99.90;;;;;;5023820;28;20570;-59
2022/11/22 02:22:58;;;;;;;32.08;23.05;;;3.10;99.90;;;;;;5024775;28;20037;-60
2022/11/22 02:25:36;;;;;;;31.83;23.30;;;2.30;99.90;;;;;;5005694;28;20283;-58
2022/11/22 02:28:05;;;;;;;32.80;23.27;;;2.40;99.90;;;;;;5023929;28;20155;-57
2022/11/22 02:30:31;;;;;;;32.72;23.20;;;2.30;99.90;;;;;;5023497;28;20510;-57
2022/11/22 02:32:56;;;;;;;30.60;22.33;;;2.80;99.90;;;;;;5005690;28;20041;-59
2022/11/22 02:35:25;;;;;;;28.80;17.65;;;2.50;99.90;;;;;;5023923;28;20192;-58
2022/11/22 02:37:58;;;;;;;32.13;22.30;;;2.50;99.90;;;;;;5024017;28;20383;-56
2022/11/22 02:40:26;;;;;;;28.73;19.08;;;2.30;99.90;;;;;;5023316;28;20053;-59
2022/11/22 02:43:00;;;;;;;32.65;22.52;;;2.40;99.90;;;;;;5023925;28;20044;-59
2022/11/22 02:45:26;;;;;;;34.37;22.60;;;2.30;99.90;;;;;;5022553;28;20053;-58
2022/11/22 02:47:52;;;;;;;30.70;22.08;;;2.40;99.90;;;;;;5008075;28;20338;-59
2022/11/22 02:50:17;;;;;;;32.50;22.42;;;2.30;99.90;;;;;;5004010;28;20042;-60
2022/11/22 02:52:43;;;;;;;31.45;21.85;;;2.50;99.90;;;;;;5004101;28;20092;-59
2022/11/22 02:55:08;;;;;;;32.88;22.52;;;2.40;99.90;;;;;;5004019;28;20038;-59
2022/11/22 02:57:34;;;;;;;32.65;21.92;;;2.60;99.90;;;;;;5002197;28;20062;-59
2022/11/22 03:00:00;;;;;;;30.83;21.35;;;2.70;99.90;;;;;;5003480;28;20038;-57
2022/11/22 03:02:25;;;;;;;30.77;21.73;;;2.40;99.90;;;;;;5002477;28;20107;-58
2022/11/22 03:04:51;;;;;;;31.90;22.48;;;2.40;99.90;;;;;;5011573;28;20041;-59
2022/11/22 03:07:17;;;;;;;29.88;20.40;;;2.40;99.90;;;;;;5022798;28;20048;-60
2022/11/22 03:09:42;;;;;;;33.47;22.55;;;2.50;99.90;;;;;;5005587;28;20042;-59
2022/11/22 03:12:08;;;;;;;31.90;23.00;;;2.60;99.90;;;;;;5004563;28;20054;-58
2022/11/22 03:14:34;;;;;;;34.15;22.27;;;3.70;99.90;;;;;;5021720;28;20560;-59
2022/11/22 03:16:59;;;;;;;31.75;21.33;;;2.60;99.90;;;;;;5021529;28;20563;-59
2022/11/22 03:19:25;;;;;;;30.27;21.17;;;2.60;99.90;;;;;;5023064;28;20472;-59
2022/11/22 03:21:51;;;;;;;32.15;21.45;;;4.50;99.90;;;;;;5022386;28;20045;-57
2022/11/22 03:24:18;;;;;;;33.33;22.17;;;2.60;99.90;;;;;;5021932;28;20037;-59
2022/11/22 03:26:48;;;;;;;32.05;21.90;;;2.50;99.90;;;;;;5023525;28;20041;-60
2022/11/22 03:29:16;;;;;;;34.30;22.23;;;2.70;99.90;;;;;;5022708;28;20100;-59
2022/11/22 03:31:41;;;;;;;29.60;20.75;;;2.40;99.90;;;;;;5021530;28;20128;-59
2022/11/22 03:34:07;;;;;;;31.70;21.13;;;2.50;99.90;;;;;;5023104;28;20128;-60
2022/11/22 03:36:33;;;;;;;31.67;21.92;;;2.50;99.90;;;;;;5023121;28;20045;-59
2022/11/22 03:38:58;;;;;;;30.48;21.02;;;2.50;99.90;;;;;;5005158;28;20041;-60
2022/11/22 03:41:24;;;;;;;30.38;20.00;;;2.60;99.90;;;;;;5022095;28;20037;-60
2022/11/22 03:43:50;;;;;;;28.00;18.55;;;2.70;99.90;;;;;;5023014;28;20050;-60
2022/11/22 03:46:18;;;;;;;34.25;20.58;;;2.70;99.90;;;;;;5022284;28;20712;-59
2022/11/22 03:48:44;;;;;;;29.02;19.67;;;2.80;99.90;;;;;;5023287;28;20463;-60
2022/11/22 03:51:10;;;;;;;29.83;18.73;;;2.70;99.90;;;;;;5022589;28;20443;-59
2022/11/22 03:53:36;;;;;;;29.95;18.63;;;2.70;99.90;;;;;;5022858;28;20132;-58
2022/11/22 03:56:02;;;;;;;29.25;19.33;;;2.80;99.90;;;;;;5022817;28;20064;-60
2022/11/22 03:58:27;;;;;;;27.38;17.17;;;2.60;99.90;;;;;;5022673;28;20120;-59
2022/11/22 04:00:54;;;;;;;30.75;20.80;;;2.80;99.90;;;;;;5004007;28;20125;-60
2022/11/22 04:03:20;;;;;;;29.45;20.05;;;2.60;99.90;;;;;;5023215;28;20045;-57
2022/11/22 04:05:45;;;;;;;30.67;19.45;;;2.70;99.90;;;;;;5022003;28;20502;-60
2022/11/22 04:08:12;;;;;;;31.88;20.23;;;2.50;99.90;;;;;;5023628;28;20049;-59
2022/11/22 04:10:38;;;;;;;29.80;19.33;;;2.80;99.90;;;;;;5026666;28;20774;-59
2022/11/22 04:13:03;;;;;;;28.05;19.10;;;2.70;99.90;;;;;;5026828;28;20049;-56
2022/11/22 04:15:29;;;;;;;29.95;19.67;;;3.20;99.90;;;;;;5024977;28;20053;-60
2022/11/22 04:17:55;;;;;;;35.83;21.90;;;2.80;99.90;;;;;;5026470;28;20144;-57
2022/11/22 04:23:16;;;;;;;34.47;21.05;;;2.50;99.90;;;;;;5007957;28;20052;-60
2022/11/22 04:25:45;;;;;;;32.95;20.48;;;2.70;99.90;;;;;;5025888;28;20053;-60
2022/11/22 04:28:12;;;;;;;32.92;21.75;;;3.50;99.90;;;;;;5025229;28;20050;-56
2022/11/22 04:33:23;;;;;;;31.97;18.73;;;2.70;99.90;;;;;;5026240;28;20080;-60
2022/11/22 04:35:49;;;;;;;31.60;20.30;;;3.00;99.90;;;;;;5025705;28;20041;-56
2022/11/22 04:38:16;;;;;;;31.02;20.83;;;2.80;99.90;;;;;;5026028;28;20096;-60
2022/11/22 04:40:42;;;;;;;31.95;21.27;;;2.80;99.90;;;;;;5025120;28;20064;-57
2022/11/22 04:45:57;;;;;;;30.55;20.92;;;2.70;99.90;;;;;;5024626;28;20168;-59
2022/11/22 04:48:23;;;;;;;28.05;17.80;;;3.00;99.90;;;;;;5025037;28;20571;-59
2022/11/22 04:53:33;;;;;;;28.02;18.67;;;2.80;99.90;;;;;;5025153;28;20200;-61
2022/11/22 04:55:58;;;;;;;28.90;18.25;;;2.90;99.90;;;;;;5025269;28;20508;-59
2022/11/22 04:58:24;;;;;;;25.48;15.73;;;2.90;99.90;;;;;;5024075;28;20037;-59
2022/11/22 05:00:51;;;;;;;28.88;19.27;;;3.30;99.90;;;;;;5024714;28;20515;-60
2022/11/22 05:03:17;;;;;;;32.17;20.58;;;2.90;99.90;;;;;;5025046;28;20045;-60
2022/11/22 05:05:43;;;;;;;29.35;20.67;;;2.90;99.90;;;;;;5024157;28;20033;-59
2022/11/22 05:08:10;;;;;;;27.73;18.85;;;3.00;99.90;;;;;;5024312;28;20049;-58
2022/11/22 05:13:23;;;;;;;31.25;20.80;;;3.10;99.90;;;;;;5025007;28;20088;-59
2022/11/22 05:15:50;;;;;;;23.30;15.10;;;3.10;99.90;;;;;;5024558;28;20400;-60
2022/11/22 05:18:17;;;;;;;33.50;21.52;;;2.90;99.90;;;;;;5025309;28;20049;-58
2022/11/22 05:20:43;;;;;;;29.02;18.02;;;3.00;99.90;;;;;;5024341;28;20088;-57
2022/11/22 05:25:53;;;;;;;32.05;20.13;;;3.00;99.90;;;;;;5025660;28;20437;-60
2022/11/22 05:28:18;;;;;;;32.30;20.75;;;2.90;99.90;;;;;;5024571;28;20116;-60
2022/11/22 05:30:44;;;;;;;33.38;20.90;;;3.40;99.90;;;;;;5024726;28;20123;-60
2022/11/22 05:33:10;;;;;;;31.08;19.52;;;2.90;99.90;;;;;;5025190;28;20038;-60
2022/11/22 05:35:35;;;;;;;29.92;19.45;;;3.00;99.90;;;;;;5007812;28;20385;-59
2022/11/22 05:38:01;;;;;;;31.98;20.55;;;3.00;99.90;;;;;;5006578;28;20053;-59
2022/11/22 05:40:26;;;;;;;30.73;21.15;;;3.70;99.90;;;;;;5025096;28;20064;-56
2022/11/22 05:42:52;;;;;;;31.52;19.50;;;3.10;99.90;;;;;;5024950;28;20133;-59
2022/11/22 05:45:18;;;;;;;29.13;19.88;;;3.10;99.90;;;;;;5024386;28;20080;-57
2022/11/22 05:47:45;;;;;;;31.73;20.73;;;3.10;99.90;;;;;;5024309;28;20099;-60
2022/11/22 05:50:11;;;;;;;27.08;16.75;;;3.20;99.90;;;;;;5025083;28;20063;-59
2022/11/22 05:52:36;;;;;;;27.75;18.25;;;3.20;99.90;;;;;;5024730;28;20125;-59
2022/11/22 05:55:03;;;;;;;30.58;18.60;;;3.10;99.90;;;;;;5023971;28;20473;-59
2022/11/22 05:57:30;;;;;;;27.73;19.33;;;3.20;99.90;;;;;;5024402;28;20070;-59
2022/11/22 05:59:56;;;;;;;28.27;18.85;;;3.10;99.90;;;;;;5023861;28;20038;-58
2022/11/22 06:02:21;;;;;;;28.45;18.00;;;3.70;99.90;;;;;;5024848;28;20053;-60
2022/11/22 06:04:47;;;;;;;31.60;21.58;;;3.10;99.90;;;;;;5022886;28;20087;-59
2022/11/22 06:07:13;;;;;;;32.17;21.17;;;3.70;99.90;;;;;;5024969;28;20560;-58
2022/11/22 06:09:38;;;;;;;34.22;21.48;;;3.10;99.90;;;;;;5007096;28;20120;-59
2022/11/22 06:12:04;;;;;;;33.50;21.05;;;3.30;99.90;;;;;;5024405;28;20049;-59
2022/11/22 06:14:30;;;;;;;33.30;20.98;;;3.30;99.90;;;;;;5023242;28;20060;-59
2022/11/22 06:16:55;;;;;;;32.47;20.55;;;3.30;99.90;;;;;;5024033;28;20049;-59
2022/11/22 06:19:21;;;;;;;25.85;16.27;;;3.20;99.90;;;;;;5024918;28;20073;-60
2022/11/22 06:21:47;;;;;;;33.85;22.23;;;3.40;99.90;;;;;;5023827;28;20045;-56
2022/11/22 06:24:12;;;;;;;31.20;20.15;;;3.70;99.90;;;;;;5023914;28;20045;-59
2022/11/22 06:26:38;;;;;;;32.25;20.23;;;3.30;99.90;;;;;;5024411;28;20385;-57
2022/11/22 06:29:04;;;;;;;31.27;21.35;;;3.20;99.90;;;;;;5024424;28;20481;-57
2022/11/22 06:31:29;;;;;;;31.55;21.40;;;3.20;99.90;;;;;;5022195;28;20492;-59
2022/11/22 06:33:58;;;;;;;27.25;19.15;;;3.30;99.90;;;;;;5024768;28;20037;-59
2022/11/22 06:36:30;;;;;;;32.88;22.33;;;3.30;99.90;;;;;;5024137;28;20752;-57
2022/11/22 06:38:56;;;;;;;32.85;21.45;;;3.30;99.90;;;;;;5023522;28;20077;-57
2022/11/22 06:41:24;;;;;;;33.17;21.55;;;3.40;99.90;;;;;;5024757;28;20053;-59
2022/11/22 06:43:51;;;;;;;26.52;16.20;;;3.30;99.90;;;;;;5023607;28;20045;-59
2022/11/22 06:46:19;;;;;;;29.48;20.50;;;3.40;99.90;;;;;;5022966;28;20060;-59
2022/11/22 06:48:44;;;;;;;33.58;21.73;;;4.20;99.90;;;;;;5022929;28;20037;-60
2022/11/22 06:51:16;;;;;;;29.92;19.95;;;3.50;99.90;;;;;;5023321;28;20100;-60
2022/11/22 06:53:42;;;;;;;33.25;22.13;;;3.30;99.90;;;;;;5024096;28;20480;-56
2022/11/22 06:56:09;;;;;;;34.88;21.77;;;3.30;99.90;;;;;;5022965;28;20095;-60
2022/11/22 06:58:35;;;;;;;30.83;20.65;;;3.40;99.90;;;;;;5023766;28;20040;-60
2022/11/22 07:01:09;;;;;;;31.15;20.02;;;3.50;99.90;;;;;;5023082;28;20056;-60
2022/11/22 07:03:37;;;;;;;28.85;21.27;;;3.50;99.90;;;;;;5023286;28;20056;-60
2022/11/22 07:06:04;;;;;;;32.30;20.98;;;3.70;99.90;;;;;;5022905;28;20045;-60
2022/11/22 07:08:30;;;;;;;32.97;21.63;;;3.60;99.90;;;;;;5024149;28;20389;-59
2022/11/22 07:11:01;;;;;;;24.88;13.40;;;3.40;99.90;;;;;;5023960;28;20067;-59
2022/11/22 07:13:27;;;;;;;31.75;22.85;;;3.60;99.90;;;;;;5023265;28;20041;-57
2022/11/22 07:15:54;;;;;;;30.40;21.42;;;3.40;99.90;;;;;;5023006;28;20095;-58
2022/11/22 07:18:20;;;;;;;32.53;22.58;;;3.40;99.90;;;;;;5023619;28;20095;-59
2022/11/22 07:20:46;;;;;;;31.08;21.40;;;3.60;99.90;;;;;;5022286;28;20045;-58
2022/11/22 07:23:12;;;;;;;30.50;22.05;;;3.50;99.90;;;;;;5023224;28;20045;-59
2022/11/22 07:25:42;;;;;;;35.92;22.67;;;3.70;99.90;;;;;;5023015;28;20111;-57
2022/11/22 07:28:07;;;;;;;30.90;20.58;;;3.60;99.90;;;;;;5023374;28;20122;-57
2022/11/22 07:30:33;;;;;;;30.48;19.98;;;3.60;99.90;;;;;;5021826;28;20120;-59
2022/11/22 07:32:58;;;;;;;31.02;20.90;;;3.70;99.90;;;;;;5005377;28;20052;-58
2022/11/22 07:35:24;;;;;;;31.83;21.73;;;3.70;99.90;;;;;;5005369;28;20110;-59
2022/11/22 07:37:49;;;;;;;29.92;19.88;;;3.70;99.90;;;;;;5021885;28;20103;-58
2022/11/22 07:40:15;;;;;;;30.95;21.25;;;3.60;99.90;;;;;;5023252;28;20045;-57
2022/11/22 07:42:41;;;;;;;34.45;21.90;;;3.60;99.90;;;;;;5025335;28;20041;-58
2022/11/22 07:45:07;;;;;;;34.75;23.13;;;3.70;99.90;;;;;;5028774;28;20171;-59
2022/11/22 07:47:32;;;;;;;37.85;24.23;;;3.70;99.90;;;;;;5011355;28;20674;-57
2022/11/22 07:49:58;;;;;;;37.10;23.38;;;3.70;99.90;;;;;;5030018;28;20119;-60
2022/11/22 07:52:24;;;;;;;33.65;21.45;;;3.80;99.90;;;;;;5029314;28;20050;-60
2022/11/22 07:54:49;;;;;;;34.50;22.20;;;4.20;99.90;;;;;;5029550;28;20495;-60
2022/11/22 07:57:15;;;;;;;31.88;21.70;;;4.30;99.90;;;;;;5028343;28;20037;-58
2022/11/22 07:59:40;;;;;;;31.73;19.58;;;5.00;99.90;;;;;;5029059;28;20042;-59
2022/11/22 08:02:10;;;;;;;32.55;22.77;;;3.90;99.90;;;;;;5011121;28;20053;-58
2022/11/22 08:04:36;;;;;;;35.70;22.13;;;4.00;99.90;;;;;;5027721;28;20128;-56
2022/11/22 08:07:01;;;;;;;36.25;23.55;;;4.10;99.90;;;;;;5029214;28;20124;-59
2022/11/22 08:09:27;;;;;;;32.90;21.98;;;4.10;99.90;;;;;;5029516;28;20824;-59
2022/11/22 08:11:53;;;;;;;35.15;23.45;;;4.00;99.90;;;;;;5029725;28;20037;-59
2022/11/22 08:14:18;;;;;;;31.88;21.17;;;4.00;99.90;;;;;;5027858;28;20041;-59
2022/11/22 08:16:44;;;;;;;35.72;22.15;;;4.10;99.90;;;;;;4993988;28;20045;-57
2022/11/22 08:19:14;;;;;;;36.25;21.58;;;4.20;99.90;;;;;;5029047;28;20132;-59
2022/11/22 08:21:40;;;;;;;33.10;22.65;;;4.90;99.90;;;;;;5029066;28;20049;-57
2022/11/22 08:24:06;;;;;;;32.28;21.52;;;4.10;99.90;;;;;;5028882;28;20407;-59
2022/11/22 08:26:33;;;;;;;33.80;22.50;;;4.20;99.90;;;;;;5011853;28;20092;-57
2022/11/22 08:28:58;;;;;;;31.27;21.45;;;4.40;99.90;;;;;;5029577;28;20045;-59
2022/11/22 08:31:25;;;;;;;35.83;21.25;;;5.10;99.90;;;;;;5027801;28;20037;-58
2022/11/22 08:33:52;;;;;;;34.30;21.80;;;4.40;99.90;;;;;;5029953;28;20091;-59
2022/11/22 08:36:18;;;;;;;33.03;21.50;;;4.60;99.90;;;;;;5029078;28;20049;-58
2022/11/22 08:38:44;;;;;;;31.70;19.88;;;4.40;99.90;;;;;;5029113;28;20048;-59
2022/11/22 08:41:10;;;;;;;30.90;20.23;;;4.40;99.90;;;;;;5028256;28;20068;-59
2022/11/22 08:43:36;;;;;;;29.45;19.35;;;4.90;99.90;;;;;;5029127;28;20492;-59
2022/11/22 08:46:02;;;;;;;30.08;18.67;;;5.00;99.90;;;;;;5028460;28;20071;-59
2022/11/22 08:48:29;;;;;;;26.27;18.95;;;5.10;99.90;;;;;;5028415;28;20046;-56
2022/11/22 08:50:57;;;;;;;25.42;15.35;;;4.80;99.90;;;;;;5029186;28;20045;-59
2022/11/22 08:53:23;;;;;;;25.58;16.52;;;5.50;99.90;;;;;;5028374;28;20041;-59
2022/11/22 08:55:49;;;;;;;27.58;15.02;;;4.90;99.90;;;;;;5026118;28;20415;-60
2022/11/22 08:58:15;;;;;;;24.45;15.70;;;5.10;99.90;;;;;;5024188;28;20440;-64
2022/11/22 09:00:40;;;;;;;19.58;9.98;;;5.00;99.90;;;;;;5024515;28;20077;-64
2022/11/22 09:03:06;;;;;;;23.90;14.45;;;5.10;99.90;;;;;;5007025;28;20048;-65
2022/11/22 09:05:32;;;;;;;22.98;13.32;;;5.20;99.90;;;;;;5024723;28;20458;-64
2022/11/22 09:07:58;;;;;;;25.77;13.50;;;5.40;99.90;;;;;;5006719;28;20595;-64
2022/11/22 09:10:24;;;;;;;22.83;13.10;;;5.30;99.90;;;;;;5024589;28;20231;-64
2022/11/22 09:12:49;;;;;;;21.38;12.02;;;5.60;99.90;;;;;;5024954;28;20102;-64
2022/11/22 09:15:15;;;;;;;16.38;11.18;;;5.70;99.90;;;;;;5022561;28;20504;-64
2022/11/22 09:17:42;;;;;;;19.77;10.93;;;6.10;99.90;;;;;;5007670;28;20539;-64
2022/11/22 09:20:09;;;;;;;20.95;10.48;;;6.00;99.90;;;;;;5006606;28;20041;-64
2022/11/22 09:22:35;;;;;;;13.32;7.68;;;5.50;99.90;;;;;;5025558;28;20049;-64
2022/11/22 09:25:01;;;;;;;20.02;8.80;;;6.30;99.90;;;;;;5024459;28;20037;-64
2022/11/22 09:27:26;;;;;;;17.38;7.32;;;6.20;99.90;;;;;;5025106;28;20134;-64
2022/11/22 09:29:52;;;;;;;22.50;7.82;;;5.80;99.90;;;;;;5023787;28;20527;-64
2022/11/22 09:32:18;;;;;;;19.42;8.00;;;6.50;99.90;;;;;;5024788;28;20045;-64
2022/11/22 09:34:43;;;;;;;16.45;6.60;;;5.60;99.90;;;;;;5001647;28;20141;-64
2022/11/22 09:37:09;;;;;;;16.73;7.22;;;5.70;99.90;;;;;;5019970;28;20193;-64
2022/11/22 09:39:35;;;;;;;14.13;5.95;;;6.40;99.90;;;;;;5021688;28;20045;-63
2022/11/22 09:42:26;;;;;;;21.55;6.60;;;6.00;99.90;;;;;;5017485;28;20048;-64
2022/11/22 09:44:58;;;;;;;15.93;5.35;;;6.30;99.90;;;;;;5013591;28;20046;-64
2022/11/22 09:47:27;;;;;;;11.38;4.13;;;6.10;99.90;;;;;;5003530;28;20058;-64
2022/11/22 09:50:10;;;;;;;15.32;4.78;;;6.20;99.90;;;;;;5004415;28;20588;-64
2022/11/22 09:52:50;;;;;;;9.73;3.13;;;6.30;99.90;;;;;;4987676;28;20053;-63
2022/11/22 09:55:26;;;;;;;11.02;3.47;;;6.70;99.90;;;;;;5024160;28;20055;-64
2022/11/22 09:58:07;;;;;;;12.90;3.88;;;6.20;99.90;;;;;;5024288;28;20053;-64
2022/11/22 10:00:34;;;;;;;14.50;3.55;;;6.30;99.90;;;;;;5023290;28;20222;-63
2022/11/22 10:03:05;;;;;;;15.63;4.47;;;6.20;99.90;;;;;;5024424;28;20038;-59
2022/11/22 10:05:42;;;;;;;13.48;3.55;;;6.20;99.90;;;;;;5023085;28;20064;-63
2022/11/22 10:08:35;;;;;;;14.65;3.90;;;6.30;99.90;;;;;;5024066;28;20056;-64
2022/11/22 10:11:08;;;;;;;10.20;2.65;;;6.20;99.90;;;;;;5023378;28;20590;-64
2022/11/22 10:13:47;;;;;;;9.02;3.67;;;6.30;99.90;;;;;;5006523;28;20130;-63
2022/11/22 10:16:25;;;;;;;8.55;3.22;;;6.20;99.90;;;;;;5023000;28;20624;-64
2022/11/22 10:19:07;;;;;;;8.35;2.92;;;6.20;99.90;;;;;;5024069;28;20042;-64
2022/11/22 10:21:33;;;;;;;13.23;3.70;;;6.10;99.90;;;;;;5023934;28;20053;-64
2022/11/22 10:23:59;;;;;;;9.75;3.35;;;6.40;99.90;;;;;;5023016;28;20523;-64
2022/11/22 10:26:28;;;;;;;11.13;3.72;;;6.30;99.90;;;;;;5021245;28;20092;-64
2022/11/22 10:29:42;;;;;;;13.10;3.90;;;6.90;99.90;;;;;;5022063;28;20499;-64
2022/11/22 10:32:17;;;;;;;14.60;3.10;;;6.10;99.90;;;;;;4976709;28;20053;-64
2022/11/22 10:34:48;;;;;;;9.82;2.72;;;6.80;99.90;;;;;;5002456;28;20038;-64
2022/11/22 10:37:47;;;;;;;9.15;2.70;;;6.30;99.90;;;;;;5003426;28;20045;-64
2022/11/22 10:40:20;;;;;;;8.80;2.10;;;6.90;99.90;;;;;;4998576;28;20061;-64
2022/11/22 10:43:03;;;;;;;10.60;3.25;;;6.40;99.90;;;;;;5003653;28;20096;-64
2022/11/22 10:45:40;;;;;;;8.65;2.65;;;6.50;99.90;;;;;;5001049;28;20046;-64
2022/11/22 10:48:34;;;;;;;6.93;1.92;;;6.30;99.90;;;;;;5002890;28;20101;-64
2022/11/22 10:51:12;;;;;;;11.20;2.50;;;6.50;99.90;;;;;;5002257;28;20107;-63
2022/11/22 10:53:46;;;;;;;8.05;2.38;;;6.50;99.90;;;;;;5003150;28;20048;-65
2022/11/22 10:56:28;;;;;;;11.18;2.28;;;6.60;99.90;;;;;;4984793;28;20826;-63
2022/11/22 10:59:35;;;;;;;4.18;1.90;;;6.60;99.90;;;;;;5002544;28;20417;-64
2022/11/22 11:02:15;;;;;;;7.53;2.28;;;6.70;99.90;;;;;;4985024;28;20781;-63
2022/11/22 11:04:42;;;;;;;8.43;2.10;;;6.60;99.90;;;;;;4991301;28;20076;-63
2022/11/22 11:07:15;;;;;;;11.02;2.63;;;6.60;99.90;;;;;;5021921;28;20038;-64
2022/11/22 11:09:52;;;;;;;8.18;2.03;;;6.70;99.90;;;;;;5005252;28;20075;-64
2022/11/22 11:12:38;;;;;;;5.80;1.58;;;6.60;99.90;;;;;;5022631;28;20069;-64
2022/11/22 11:15:13;;;;;;;4.60;1.45;;;6.60;99.90;;;;;;5022055;28;20432;-64
2022/11/22 11:17:41;;;;;;;5.40;1.60;;;6.70;99.90;;;;;;5022196;28;20049;-59
2022/11/22 11:20:24;;;;;;;5.20;1.73;;;6.80;99.90;;;;;;5023503;28;20411;-60
2022/11/22 11:22:50;;;;;;;5.95;1.77;;;6.80;99.90;;;;;;5021825;28;20041;-61
2022/11/22 11:25:42;;;;;;;5.65;1.45;;;6.90;99.90;;;;;;5023074;28;20053;-60
2022/11/22 11:28:21;;;;;;;4.90;1.55;;;7.00;99.90;;;;;;5004903;28;20041;-60
2022/11/22 11:30:54;;;;;;;9.00;1.60;;;7.00;99.90;;;;;;5022184;28;20044;-59
2022/11/22 11:33:31;;;;;;;7.40;1.48;;;7.00;99.90;;;;;;5005334;28;20051;-59
2022/11/22 11:36:34;;;;;;;5.20;1.75;;;7.10;99.90;;;;;;5021715;28;20472;-59
2022/11/22 11:39:00;;;;;;;7.68;1.65;;;7.00;99.90;;;;;;4977235;28;20045;-60
2022/11/22 11:41:33;;;;;;;8.23;1.48;;;7.10;99.90;;;;;;5022872;28;20048;-59
2022/11/22 11:44:01;;;;;;;6.63;1.65;;;7.10;99.90;;;;;;5022108;28;20432;-60
2022/11/22 11:46:28;;;;;;;5.10;1.52;;;7.20;99.90;;;;;;5022305;28;20037;-58
2022/11/22 11:49:14;;;;;;;7.65;1.23;;;7.40;99.90;;;;;;5004967;28;20061;-60
2022/11/22 11:51:47;;;;;;;7.40;1.67;;;7.70;99.90;;;;;;4990765;28;20045;-59
2022/11/22 11:54:22;;;;;;;7.43;1.77;;;7.80;99.90;;;;;;4985640;28;20046;-59
2022/11/22 11:56:55;;;;;;;7.00;1.35;;;8.00;99.90;;;;;;5001712;28;20491;-59
2022/11/22 11:59:24;;;;;;;6.38;1.90;;;8.00;99.90;;;;;;5001392;28;20038;-60
2022/11/22 12:01:54;;;;;;;5.32;1.52;;;7.90;99.90;;;;;;5003079;28;20148;-59
2022/11/22 12:04:24;;;;;;;6.78;2.00;;;7.80;99.90;;;;;;5007735;28;20033;-59
2022/11/22 12:06:55;;;;;;;7.82;1.83;;;7.60;99.90;;;;;;5021940;28;20053;-60
2022/11/22 12:09:33;;;;;;;5.38;1.90;;;7.50;99.90;;;;;;5022432;28;20042;-59
2022/11/22 12:12:07;;;;;;;7.95;1.90;;;7.50;99.90;;;;;;5022485;28;20050;-59
2022/11/22 12:14:34;;;;;;;7.67;1.93;;;7.60;99.90;;;;;;5021523;28;20423;-59
2022/11/22 12:17:06;;;;;;;6.22;1.60;;;7.50;99.90;;;;;;5021795;28;20401;-60
2022/11/22 12:19:59;;;;;;;6.53;1.83;;;7.50;99.90;;;;;;5021369;28;20486;-59
2022/11/22 12:22:59;;;;;;;8.15;1.92;;;7.50;99.90;;;;;;5022177;28;20081;-58
2022/11/22 12:25:38;;;;;;;6.03;1.55;;;7.60;99.90;;;;;;5022270;28;20042;-60
2022/11/22 12:28:18;;;;;;;6.93;1.60;;;7.50;99.90;;;;;;5022625;28;20103;-60
2022/11/22 12:30:49;;;;;;;7.22;1.95;;;7.50;99.90;;;;;;5025457;28;20080;-59
2022/11/22 12:33:39;;;;;;;7.22;1.77;;;7.50;99.90;;;;;;5008494;28;20049;-60
2022/11/22 12:36:13;;;;;;;8.30;1.98;;;7.40;99.90;;;;;;5026122;28;20041;-59
2022/11/22 12:38:43;;;;;;;6.05;1.55;;;7.50;99.90;;;;;;5025951;28;20077;-59
2022/11/22 12:41:12;;;;;;;7.35;1.83;;;7.60;99.90;;;;;;5025320;28;20096;-59
2022/11/22 12:43:53;;;;;;;4.75;1.50;;;7.40;99.90;;;;;;5026616;28;20469;-58
2022/11/22 12:46:44;;;;;;;7.18;1.70;;;7.40;99.90;;;;;;5025700;28;20041;-58
2022/11/22 12:49:28;;;;;;;6.72;1.98;;;7.40;99.90;;;;;;5025116;28;20060;-57
2022/11/22 12:52:15;;;;;;;6.20;1.97;;;7.30;99.90;;;;;;5024776;28;20041;-59
2022/11/22 12:54:55;;;;;;;6.50;1.65;;;7.40;99.90;;;;;;5026020;28;20095;-59
2022/11/22 12:57:38;;;;;;;8.27;1.95;;;7.30;99.90;;;;;;5024836;28;20041;-59
2022/11/22 13:00:09;;;;;;;7.20;2.08;;;7.40;99.90;;;;;;5024978;28;20172;-59
2022/11/22 13:03:04;;;;;;;7.43;1.55;;;7.40;99.90;;;;;;5006879;28;20054;-59
2022/11/22 13:05:38;;;;;;;6.05;1.85;;;7.50;99.90;;;;;;5024030;28;20060;-59
2022/11/22 13:08:23;;;;;;;6.05;1.70;;;7.30;99.90;;;;;;5024992;28;20786;-59
2022/11/22 13:10:51;;;;;;;6.35;2.03;;;7.50;99.90;;;;;;5025083;28;20045;-59